메인 페이지
METAR-TAF:

METAR-TAF

공항 :

파고파고, 미국령 군소 제도

위도: 14-20S, 경도: 170-43W, 고도: 3m

현재 날씨관측

예보는 51분 전, 15:50시(UTC)에 발표되었습니다.
여러 방향의 바람 6kt
온도 26°C
습도 89%
기압 1012 hPa
시정: 16.1km
고도 1700ft 상공 구름 보통
고도 4000ft 상공 구름 많음
고도 9000ft 상공 구름 많음

METAR: NSTU 151550Z VRB06KT 10SM SCT017 BKN040 BKN090 26/24 A2988 RMK SLP120 T02550235

시각: 05:41 (16:41 UTC)

예보

예보는 5 시간 13분 전, 11:28시(UTC)에 발표되었습니다.
예보 대상 시간: 15일 12시부터 16일 12시까지 (UTC)
동남동9kt
시정: 10km
고도 1500ft 상공 구름 보통
고도 3500ft 상공 구름 많음
고도 10000ft 상공 구름 많음
시계 내 소나기
일시적
15일 12시부터 15일 15시까지 (UTC)
시정: 8.0km
고도 1500ft 상공 구름 많음
소나기, 박무

TAF: NSTU 151128Z 1512/1612 11009KT P6SM VCSH SCT015 BKN035 BKN100 TEMPO 1512/1515 5SM SHRA BR BKN015

4,000개 이상의 공항 관측 자료 및 예보 (METAR 및 TAF 보고).

지도상에서 검색 가능한 기상관측소가 노란 점과 빨간 점으로 표시되어 있습니다.

기상관측소 명을 보려면 표시 위로 마우스를 이동하세요.

날씨 관측과 예보를 보려면 클릭하세요.

지도 변경 : 확대하려면 엑스 표시가 있는 녹색 버튼, 축소하려면 빼기 표시가 있는 녹색 버튼, 다음 페이지의 지도를 보려면 녹색 화살표를 클릭하세요.


METAR-TAF: